Sign-in with your pilot id or email, or register

ICAO: LKPR Name / Country: Praha - Ruzyn? / Czech Republic
Latitude: 50.1008 Longitude: 14.26
Total Arrivals:
Strict Standards: Non-static method AirportData::getarrflights() should not be called statically, assuming $this from incompatible context in /var/www/customers/vh-7192/web/home/phpvms/core/templates/airport_info.tpl on line 18
5
Total Departures:
Strict Standards: Non-static method AirportData::getdeptflights() should not be called statically, assuming $this from incompatible context in /var/www/customers/vh-7192/web/home/phpvms/core/templates/airport_info.tpl on line 21
12
Latest Arrival: MTA824 (LHBP-LKPR) Tibor Berces Latest Departure: MTA11P (LKPR-LHBP) Tibor Berces
Metar: LKPR 172305Z 28015G25KT 9999 FEW030 09/03 Q1019 RMK REG QNH 1013
More info

Charts for LKPR


NOTAM


Warning: file_get_contents(http://api.vateud.net/notams/LKPR.json): failed to open stream: Redirection limit reached, aborting in /var/www/customers/vh-7192/web/home/phpvms/core/common/NOTAMSData.class.php on line 18

Warning: Invalid argument supplied for foreach() in /var/www/customers/vh-7192/web/home/phpvms/core/common/NOTAMSData.class.php on line 22

Praha - Ruzyn?